createdAt,value
2019-05-29T00:00:43.442Z,73.23
2019-05-29T00:01:43.421Z,73.02
2019-05-29T00:02:43.412Z,73.02
2019-05-29T00:03:43.396Z,73.13
2019-05-29T00:04:43.442Z,72.92
2019-05-29T00:05:43.376Z,72.92
2019-05-29T00:06:43.360Z,72.82
2019-05-29T00:07:43.485Z,72.92
2019-05-29T00:08:43.346Z,72.92
2019-05-29T00:09:43.328Z,73.13
2019-05-29T00:10:43.317Z,72.86
2019-05-29T00:11:43.307Z,73.13
2019-05-29T00:12:43.293Z,72.86
2019-05-29T00:13:43.332Z,73.47
2019-05-29T00:14:43.277Z,73.26
2019-05-29T00:15:43.260Z,73.57
2019-05-29T00:16:43.295Z,73.36
2019-05-29T00:17:43.237Z,73.47
2019-05-29T00:18:43.478Z,73.26
2019-05-29T00:19:43.227Z,73.33
2019-05-29T00:20:43.206Z,73.36
2019-05-29T00:21:43.192Z,73.16
2019-05-29T00:22:43.181Z,73.57
2019-05-29T00:23:43.170Z,72.86
2019-05-29T00:24:43.209Z,73.57
2019-05-29T00:25:43.151Z,73.36
2019-05-29T00:26:43.136Z,73.36
2019-05-29T00:27:43.126Z,73.06
2019-05-29T00:28:43.113Z,73.47
2019-05-29T00:29:43.157Z,73.26
2019-05-29T00:30:43.090Z,73.47
2019-05-29T00:31:43.084Z,73.57
2019-05-29T00:32:43.095Z,73.57
2019-05-29T00:33:43.064Z,73.47
2019-05-29T00:34:43.045Z,73.47
2019-05-29T00:35:43.083Z,73.47
2019-05-29T00:36:43.282Z,73.57
2019-05-29T00:37:43.011Z,73.06
2019-05-29T00:38:42.999Z,73.57
2019-05-29T00:39:42.990Z,73.57
2019-05-29T00:40:42.977Z,73.57
2019-05-29T00:41:43.017Z,73.26
2019-05-29T00:42:43.009Z,73.77
2019-05-29T00:43:42.944Z,73.71
2019-05-29T00:44:42.932Z,73.91
2019-05-29T00:45:42.919Z,73.40
2019-05-29T00:46:42.907Z,73.91
2019-05-29T00:47:42.900Z,73.81
2019-05-29T00:48:42.929Z,74.11
2019-05-29T00:49:42.877Z,74.01
2019-05-29T00:50:42.915Z,73.91
2019-05-29T00:51:42.851Z,73.94
2019-05-29T00:52:42.841Z,74.35
2019-05-29T00:53:42.832Z,74.05
2019-05-29T00:54:42.820Z,74.05
2019-05-29T00:55:42.865Z,74.76
2019-05-29T00:56:42.795Z,74.21
2019-05-29T00:57:42.836Z,74.15
2019-05-29T00:58:42.772Z,74.42
2019-05-29T00:59:42.762Z,74.86
2019-05-29T01:00:42.749Z,74.76
2019-05-29T01:01:42.738Z,75.07
2019-05-29T01:02:42.791Z,75.16
2019-05-29T01:03:42.766Z,74.86
2019-05-29T01:04:42.726Z,75.16
2019-05-29T01:05:42.697Z,75.68
2019-05-29T01:06:42.683Z,75.37
2019-05-29T01:07:42.670Z,75.07
2019-05-29T01:08:42.658Z,75.31
2019-05-29T01:09:42.693Z,75.51
2019-05-29T01:10:42.636Z,75.78
2019-05-29T01:11:42.641Z,74.96
2019-05-29T01:12:42.655Z,75.20
2019-05-29T01:13:42.602Z,75.92
2019-05-29T01:14:50.082Z,75.10
2019-05-29T01:15:43.578Z,75.82
2019-05-29T01:16:42.568Z,75.51
2019-05-29T01:17:42.604Z,75.82
2019-05-29T01:18:42.544Z,75.82
2019-05-29T01:19:42.533Z,75.85
2019-05-29T01:20:42.523Z,76.67
2019-05-29T01:21:42.538Z,76.67
2019-05-29T01:22:42.499Z,76.26
2019-05-29T01:23:42.538Z,76.67
2019-05-29T01:24:42.475Z,76.97
2019-05-29T01:25:42.471Z,77.08
2019-05-29T01:26:42.460Z,76.97
2019-05-29T01:27:42.484Z,77.18
2019-05-29T01:28:42.436Z,77.48
2019-05-29T01:29:42.420Z,76.77
2019-05-29T01:30:42.407Z,77.83
2019-05-29T01:31:42.395Z,77.28
2019-05-29T01:32:42.431Z,78.09
2019-05-29T01:33:42.377Z,78.03
2019-05-29T01:34:42.406Z,78.03
2019-05-29T01:35:42.402Z,78.34
2019-05-29T01:36:42.402Z,78.95
2019-05-29T01:37:42.328Z,78.85
2019-05-29T01:38:42.316Z,78.75
2019-05-29T01:39:42.305Z,78.75
2019-05-29T01:40:42.293Z,78.64
2019-05-29T01:41:42.282Z,78.64
2019-05-29T01:42:42.319Z,79.16
2019-05-29T01:43:42.258Z,79.05
2019-05-29T01:44:42.251Z,79.87
2019-05-29T01:45:42.284Z,80.32
2019-05-29T01:46:42.276Z,79.19
2019-05-29T01:47:42.216Z,80.32
2019-05-29T01:48:42.203Z,79.80
2019-05-29T01:49:42.192Z,80.11
2019-05-29T01:50:42.204Z,80.76
2019-05-29T01:51:42.169Z,80.87
2019-05-29T01:52:42.207Z,80.97
2019-05-29T01:53:42.145Z,80.97
2019-05-29T01:54:42.133Z,81.41
2019-05-29T01:55:42.127Z,81.79
2019-05-29T01:56:42.161Z,81.82
2019-05-29T01:57:42.102Z,82.13
2019-05-29T01:58:42.088Z,81.72
2019-05-29T01:59:42.127Z,82.13
2019-05-29T02:00:42.068Z,82.43
2019-05-29T02:01:42.099Z,82.23
2019-05-29T02:02:42.044Z,83.29
2019-05-29T02:03:42.078Z,83.36
2019-05-29T02:04:42.025Z,82.48
2019-05-29T02:05:42.015Z,82.95
2019-05-29T02:06:42.001Z,82.34
2019-05-29T02:07:41.987Z,82.75
2019-05-29T02:08:42.025Z,82.75
2019-05-29T02:09:41.965Z,82.34
2019-05-29T02:10:41.954Z,82.13
2019-05-29T02:11:41.984Z,82.43
2019-05-29T02:12:41.931Z,82.89
2019-05-29T02:13:41.920Z,83.29
2019-05-29T02:14:41.911Z,83.05
2019-05-29T02:15:41.897Z,82.64
2019-05-29T02:16:41.885Z,82.78
2019-05-29T02:17:41.916Z,82.57
2019-05-29T02:18:41.863Z,82.78
2019-05-29T02:19:41.854Z,82.78
2019-05-29T02:20:41.882Z,83.29
2019-05-29T02:21:41.828Z,83.39
2019-05-29T02:22:41.859Z,83.50
2019-05-29T02:23:41.808Z,83.91
2019-05-29T02:24:41.794Z,83.70
2019-05-29T02:25:41.786Z,84.56
2019-05-29T02:26:41.773Z,84.56
2019-05-29T02:27:41.760Z,84.36
2019-05-29T02:28:41.793Z,84.05
2019-05-29T02:29:41.789Z,84.46
2019-05-29T02:30:41.727Z,84.15
2019-05-29T02:31:41.721Z,84.36
2019-05-29T02:32:41.703Z,84.15
2019-05-29T02:33:41.693Z,84.36
2019-05-29T02:34:41.689Z,84.15
2019-05-29T02:35:41.712Z,84.77
2019-05-29T02:36:41.703Z,84.77
2019-05-29T02:37:41.653Z,84.56
2019-05-29T02:38:41.636Z,85.01
2019-05-29T02:39:41.629Z,85.01
2019-05-29T02:40:41.613Z,84.80
2019-05-29T02:41:41.642Z,84.91
2019-05-29T02:42:41.597Z,84.50
2019-05-29T02:43:41.610Z,84.91
2019-05-29T02:44:41.576Z,85.01
2019-05-29T02:45:53.628Z,84.80
2019-05-29T02:46:42.584Z,85.42
2019-05-29T02:47:41.533Z,85.42
2019-05-29T02:48:41.563Z,85.42
2019-05-29T02:49:41.509Z,85.11
2019-05-29T02:50:41.497Z,85.52
2019-05-29T02:51:41.491Z,84.64
2019-05-29T02:52:41.476Z,85.66
2019-05-29T02:53:41.467Z,85.25
2019-05-29T02:54:41.493Z,85.36
2019-05-29T02:55:41.441Z,85.46
2019-05-29T02:56:42.573Z,85.25
2019-05-29T02:57:41.418Z,85.66
2019-05-29T02:58:41.453Z,85.25
2019-05-29T02:59:41.395Z,85.66
2019-05-29T03:00:41.386Z,85.15
2019-05-29T03:01:41.380Z,85.15
2019-05-29T03:02:41.404Z,85.46
2019-05-29T03:03:41.353Z,85.15
2019-05-29T03:04:41.338Z,85.46
2019-05-29T03:05:41.337Z,85.36
2019-05-29T03:06:41.317Z,85.56
2019-05-29T03:07:41.306Z,85.25
2019-05-29T03:08:41.332Z,85.25
2019-05-29T03:09:41.287Z,85.15
2019-05-29T03:10:41.270Z,85.15
2019-05-29T03:11:41.323Z,85.19
2019-05-29T03:12:41.252Z,85.36
2019-05-29T03:13:41.245Z,85.19
2019-05-29T03:14:41.267Z,85.87
2019-05-29T03:15:41.215Z,85.71
2019-05-29T03:16:41.206Z,85.71
2019-05-29T03:17:41.193Z,86.11
2019-05-29T03:18:41.180Z,86.42
2019-05-29T03:19:41.211Z,86.63
2019-05-29T03:20:41.158Z,86.22
2019-05-29T03:21:41.145Z,86.52
2019-05-29T03:22:41.135Z,87.04
2019-05-29T03:23:41.127Z,86.77
2019-05-29T03:24:41.158Z,86.57
2019-05-29T03:25:41.103Z,87.08
2019-05-29T03:26:41.092Z,87.49
2019-05-29T03:27:41.127Z,87.28
2019-05-29T03:28:41.107Z,87.08
2019-05-29T03:29:41.094Z,87.14
2019-05-29T03:30:45.778Z,86.98
2019-05-29T03:31:47.189Z,87.28
2019-05-29T03:32:47.576Z,87.14
2019-05-29T03:33:49.168Z,87.28
2019-05-29T03:34:46.726Z,86.77
2019-05-29T03:35:47.678Z,86.36
2019-05-29T03:36:47.886Z,86.57
2019-05-29T03:37:41.963Z,86.15
2019-05-29T03:38:40.963Z,86.77
2019-05-29T03:39:40.985Z,86.36
2019-05-29T03:40:40.936Z,86.15
2019-05-29T03:41:40.959Z,86.25
2019-05-29T03:42:40.909Z,86.36
2019-05-29T03:43:40.937Z,86.57
2019-05-29T03:44:40.889Z,86.57
2019-05-29T03:45:40.916Z,86.87
2019-05-29T03:46:45.711Z,86.15
2019-05-29T03:47:41.866Z,86.77
2019-05-29T03:48:40.879Z,86.36
2019-05-29T03:49:40.840Z,86.36
2019-05-29T03:50:40.880Z,86.57
2019-05-29T03:51:40.813Z,86.25
2019-05-29T03:52:40.804Z,86.77
2019-05-29T03:53:40.831Z,86.46
2019-05-29T03:54:40.781Z,86.57
2019-05-29T03:55:40.762Z,86.66
2019-05-29T03:56:40.763Z,86.57
2019-05-29T03:57:40.737Z,86.81
2019-05-29T03:58:40.766Z,86.77
2019-05-29T03:59:40.760Z,86.46
2019-05-29T04:00:45.895Z,86.46
2019-05-29T04:01:41.692Z,86.77
2019-05-29T04:02:40.682Z,86.15
2019-05-29T04:03:40.723Z,86.15
2019-05-29T04:04:40.666Z,87.08
2019-05-29T04:05:40.649Z,86.40
2019-05-29T04:06:40.638Z,86.30
2019-05-29T04:07:40.624Z,86.71
2019-05-29T04:08:40.615Z,86.81
2019-05-29T04:09:40.642Z,86.87
2019-05-29T04:10:40.631Z,86.19
2019-05-29T04:11:40.580Z,86.15
2019-05-29T04:12:40.589Z,86.30
2019-05-29T04:13:40.602Z,86.60
2019-05-29T04:14:40.549Z,86.25
2019-05-29T04:15:40.538Z,86.66
2019-05-29T04:16:58.534Z,85.85
2019-05-29T04:17:41.510Z,85.95
2019-05-29T04:18:40.500Z,86.05
2019-05-29T04:19:40.533Z,86.25
2019-05-29T04:20:40.480Z,85.60
2019-05-29T04:21:40.463Z,85.44
2019-05-29T04:22:40.454Z,85.50
2019-05-29T04:23:40.450Z,85.44
2019-05-29T04:24:40.433Z,85.54
2019-05-29T04:25:43.077Z,85.23
2019-05-29T04:26:40.408Z,85.13
2019-05-29T04:27:40.439Z,85.54
2019-05-29T04:28:40.391Z,85.23
2019-05-29T04:29:40.376Z,85.60
2019-05-29T04:30:40.366Z,85.50
2019-05-29T04:31:40.352Z,84.58
2019-05-29T04:32:40.379Z,84.68
2019-05-29T04:33:40.386Z,84.68
2019-05-29T04:34:40.321Z,85.09
2019-05-29T04:35:40.347Z,84.47
2019-05-29T04:36:40.296Z,84.88
2019-05-29T04:37:40.357Z,85.30
2019-05-29T04:38:40.564Z,85.09
2019-05-29T04:39:40.265Z,85.05
2019-05-29T04:40:40.296Z,85.09
2019-05-29T04:41:40.243Z,84.47
2019-05-29T04:42:40.366Z,84.88
2019-05-29T04:43:40.216Z,85.15
2019-05-29T04:44:41.127Z,84.33
2019-05-29T04:45:40.353Z,84.64
2019-05-29T04:46:40.681Z,84.53
2019-05-29T04:47:40.170Z,84.53
2019-05-29T04:48:40.577Z,83.92
2019-05-29T04:49:40.191Z,83.00
2019-05-29T04:50:40.800Z,82.69
2019-05-29T04:51:40.180Z,82.59
2019-05-29T04:52:40.556Z,83.41
2019-05-29T04:53:40.182Z,83.31
2019-05-29T04:54:40.350Z,82.76
2019-05-29T04:55:40.078Z,83.31
2019-05-29T04:56:40.074Z,82.45
2019-05-29T04:57:40.096Z,82.55
2019-05-29T04:58:40.045Z,82.35
2019-05-29T04:59:40.035Z,81.94
2019-05-29T05:00:40.025Z,81.84
2019-05-29T05:01:40.022Z,82.14
2019-05-29T05:02:40.051Z,81.73
2019-05-29T05:03:40.035Z,82.28
2019-05-29T05:04:39.980Z,82.79
2019-05-29T05:05:39.970Z,82.49
2019-05-29T05:06:39.957Z,82.69
2019-05-29T05:07:39.959Z,82.69
2019-05-29T05:08:40.309Z,83.00
2019-05-29T05:09:39.962Z,82.69
2019-05-29T05:10:41.026Z,82.65
2019-05-29T05:11:39.908Z,81.94
2019-05-29T05:12:40.249Z,81.94
2019-05-29T05:13:39.881Z,82.62
2019-05-29T05:14:39.924Z,81.90
2019-05-29T05:15:40.219Z,82.31
2019-05-29T05:16:40.066Z,82.62
2019-05-29T05:17:40.200Z,82.00
2019-05-29T05:18:40.344Z,81.59
2019-05-29T05:19:40.138Z,81.79
2019-05-29T05:20:40.412Z,81.29
2019-05-29T05:21:40.274Z,82.31
2019-05-29T05:22:40.940Z,82.00
2019-05-29T05:23:40.538Z,81.70
2019-05-29T05:24:43.503Z,81.49
2019-05-29T05:25:40.999Z,81.79
2019-05-29T05:26:40.479Z,81.76
2019-05-29T05:27:40.635Z,81.24
2019-05-29T05:28:43.534Z,81.56
2019-05-29T05:29:41.436Z,80.94
2019-05-29T05:30:40.818Z,80.53
2019-05-29T05:31:40.843Z,80.43
2019-05-29T05:32:40.959Z,80.63
2019-05-29T05:33:40.587Z,81.04
2019-05-29T05:34:40.904Z,80.74
2019-05-29T05:35:41.111Z,80.33
2019-05-29T05:36:40.889Z,80.49
2019-05-29T05:37:40.944Z,80.80
2019-05-29T05:38:40.875Z,80.60
2019-05-29T05:39:41.092Z,80.60
2019-05-29T05:40:43.048Z,80.80
2019-05-29T05:41:39.614Z,80.60
2019-05-29T05:42:39.588Z,80.35
2019-05-29T05:43:39.536Z,80.39
2019-05-29T05:44:39.544Z,80.15
2019-05-29T05:45:39.538Z,80.56
2019-05-29T05:46:39.506Z,80.46
2019-05-29T05:47:53.593Z,80.15
2019-05-29T05:48:41.517Z,79.43
2019-05-29T05:49:39.618Z,79.02
2019-05-29T05:50:39.515Z,79.39
2019-05-29T05:51:42.800Z,79.19
2019-05-29T05:52:41.532Z,78.58
2019-05-29T05:53:39.543Z,78.68
2019-05-29T05:54:39.602Z,78.38
2019-05-29T05:55:39.806Z,77.76
2019-05-29T05:56:39.733Z,77.15
2019-05-29T05:57:39.723Z,77.25
2019-05-29T05:58:39.945Z,77.04
2019-05-29T05:59:39.889Z,77.25
2019-05-29T06:00:39.923Z,77.45
2019-05-29T06:01:40.059Z,77.04
2019-05-29T06:02:40.115Z,77.45
2019-05-29T06:03:40.611Z,77.45
2019-05-29T06:04:40.046Z,77.66
2019-05-29T06:05:40.233Z,76.84
2019-05-29T06:06:40.268Z,77.25
2019-05-29T06:07:40.437Z,77.76
2019-05-29T06:08:40.214Z,77.45
2019-05-29T06:09:40.436Z,77.25
2019-05-29T06:10:40.257Z,76.40
2019-05-29T06:11:40.316Z,76.19
2019-05-29T06:12:40.494Z,76.29
2019-05-29T06:13:40.413Z,75.89
2019-05-29T06:14:40.565Z,75.99
2019-05-29T06:15:40.543Z,75.44
2019-05-29T06:16:40.620Z,75.85
2019-05-29T06:17:39.158Z,75.44
2019-05-29T06:18:39.207Z,75.04
2019-05-29T06:19:39.125Z,75.54
2019-05-29T06:20:39.224Z,75.65
2019-05-29T06:21:39.110Z,75.24
2019-05-29T06:22:39.285Z,75.68
2019-05-29T06:23:39.194Z,75.65
2019-05-29T06:24:39.083Z,74.52
2019-05-29T06:25:40.725Z,74.01
2019-05-29T06:26:39.122Z,74.32
2019-05-29T06:27:39.324Z,74.01
2019-05-29T06:28:39.196Z,73.50
2019-05-29T06:29:39.381Z,73.06
2019-05-29T06:30:41.289Z,73.27
2019-05-29T06:31:39.433Z,73.60
2019-05-29T06:32:39.445Z,72.99
2019-05-29T06:33:39.482Z,73.27
2019-05-29T06:34:39.571Z,73.06
2019-05-29T06:35:39.635Z,73.27
2019-05-29T06:36:39.608Z,73.98
2019-05-29T06:37:39.584Z,73.67
2019-05-29T06:38:40.440Z,71.94
2019-05-29T06:39:39.647Z,72.65
2019-05-29T06:40:40.177Z,72.45
2019-05-29T06:41:40.142Z,71.91
2019-05-29T06:42:39.866Z,72.41
2019-05-29T06:43:39.891Z,73.03
2019-05-29T06:44:39.834Z,73.43
2019-05-29T06:45:39.952Z,72.21
2019-05-29T06:46:40.294Z,71.22
2019-05-29T06:47:40.629Z,71.39
2019-05-29T06:48:46.159Z,71.80
2019-05-29T06:49:40.123Z,71.80
2019-05-29T06:50:39.443Z,71.29
2019-05-29T06:51:39.315Z,71.73
2019-05-29T06:52:39.494Z,72.00
2019-05-29T06:53:39.812Z,71.67
2019-05-29T06:54:39.997Z,71.29
2019-05-29T06:55:39.860Z,70.95
2019-05-29T06:56:39.717Z,71.06
2019-05-29T06:57:40.129Z,69.63
2019-05-29T06:58:39.926Z,68.68
2019-05-29T06:59:38.715Z,68.81
2019-05-29T07:00:39.391Z,68.57
2019-05-29T07:01:39.448Z,69.39
2019-05-29T07:02:38.654Z,69.63
2019-05-29T07:03:39.692Z,69.53
2019-05-29T07:04:38.635Z,70.14
2019-05-29T07:05:39.802Z,68.91
2019-05-29T07:06:40.590Z,68.30
2019-05-29T07:07:40.181Z,67.18
2019-05-29T07:08:44.028Z,67.38
2019-05-29T07:09:39.596Z,67.69
2019-05-29T07:10:38.638Z,68.07
2019-05-29T07:11:39.060Z,69.12
2019-05-29T07:12:38.524Z,67.76
2019-05-29T07:13:41.873Z,67.05
2019-05-29T07:14:40.271Z,67.05
2019-05-29T07:15:38.704Z,66.94
2019-05-29T07:16:45.357Z,65.59
2019-05-29T07:17:40.446Z,62.84
2019-05-29T07:18:38.636Z,63.15
2019-05-29T07:19:48.954Z,60.98
2019-05-29T07:20:40.593Z,60.68
2019-05-29T07:21:38.865Z,60.75
2019-05-29T07:22:38.971Z,61.69
2019-05-29T07:23:38.775Z,62.51
2019-05-29T07:24:38.827Z,62.40
2019-05-29T07:25:38.783Z,60.64
2019-05-29T07:26:38.894Z,60.68
2019-05-29T07:27:38.829Z,59.53
2019-05-29T07:28:46.849Z,59.25
2019-05-29T07:29:39.344Z,60.68
2019-05-29T07:30:39.150Z,60.85
2019-05-29T07:31:38.840Z,60.34
2019-05-29T07:32:40.444Z,61.15
2019-05-29T07:33:39.000Z,61.15
2019-05-29T07:34:53.684Z,60.03
2019-05-29T07:35:39.354Z,59.60
2019-05-29T07:36:39.778Z,60.03
2019-05-29T07:37:39.555Z,59.39
2019-05-29T07:38:39.561Z,60.52
2019-05-29T07:39:39.376Z,60.52
2019-05-29T07:40:38.499Z,59.70
2019-05-29T07:41:39.471Z,58.78
2019-05-29T07:42:40.161Z,58.28
2019-05-29T07:43:39.689Z,58.07
2019-05-29T07:44:38.160Z,58.17
2019-05-29T07:45:38.167Z,58.38
2019-05-29T07:46:38.153Z,58.92
2019-05-29T07:47:38.413Z,59.12
2019-05-29T07:48:38.483Z,59.73
2019-05-29T07:50:34.309Z,60.14
2019-05-29T07:50:40.088Z,59.93
2019-05-29T07:51:38.252Z,60.54
2019-05-29T07:52:38.638Z,60.44
2019-05-29T07:53:38.266Z,60.82
2019-05-29T07:54:39.841Z,61.43
2019-05-29T07:55:38.402Z,61.63
2019-05-29T07:56:38.360Z,60.61
2019-05-29T07:57:38.828Z,60.61
2019-05-29T07:58:38.710Z,61.10
2019-05-29T07:59:38.568Z,61.60
2019-05-29T08:01:00.992Z,61.60
2019-05-29T08:01:38.974Z,60.72
2019-05-29T08:02:39.321Z,61.10
2019-05-29T08:03:39.219Z,60.28
2019-05-29T08:04:38.892Z,61.60
2019-05-29T08:05:39.183Z,61.30
2019-05-29T08:06:38.952Z,62.01
2019-05-29T08:07:39.348Z,61.88
2019-05-29T08:08:39.097Z,61.57
2019-05-29T08:09:39.227Z,60.22
2019-05-29T08:10:39.819Z,60.22
2019-05-29T08:11:37.886Z,60.66
2019-05-29T08:12:41.657Z,60.76
2019-05-29T08:13:39.486Z,60.56
2019-05-29T08:14:37.839Z,60.02
2019-05-29T08:15:52.108Z,60.15
2019-05-29T08:16:39.762Z,60.25
2019-05-29T08:17:37.792Z,60.25
2019-05-29T08:18:37.803Z,60.22
2019-05-29T08:19:37.770Z,58.60
2019-05-29T08:20:37.769Z,58.78
2019-05-29T08:21:37.798Z,56.65
2019-05-29T08:22:37.733Z,56.54
2019-05-29T08:23:37.774Z,56.34
2019-05-29T08:24:37.735Z,56.47
2019-05-29T08:25:37.703Z,56.04
2019-05-29T08:26:37.696Z,56.65
2019-05-29T08:27:37.738Z,56.34
2019-05-29T08:28:37.684Z,57.25
2019-05-29T08:29:37.695Z,56.82
2019-05-29T08:30:37.690Z,55.93
2019-05-29T08:31:37.637Z,55.96
2019-05-29T08:32:37.887Z,56.44
2019-05-29T08:33:37.669Z,56.04
2019-05-29T08:34:37.645Z,55.12
2019-05-29T08:35:37.599Z,55.22
2019-05-29T08:36:37.753Z,55.83
2019-05-29T08:37:37.595Z,56.44
2019-05-29T08:38:37.616Z,55.50
2019-05-29T08:39:37.598Z,56.21
2019-05-29T08:40:37.552Z,56.11
2019-05-29T08:41:37.525Z,56.39
2019-05-29T08:42:37.541Z,54.59
2019-05-29T08:43:37.528Z,53.58
2019-05-29T08:44:37.490Z,53.27
2019-05-29T08:45:37.538Z,52.76
2019-05-29T08:46:37.555Z,52.66
2019-05-29T08:47:37.571Z,52.97
2019-05-29T08:48:37.461Z,54.18
2019-05-29T08:49:37.519Z,54.69
2019-05-29T08:50:37.429Z,54.69
2019-05-29T08:51:37.411Z,54.59
2019-05-29T08:52:37.497Z,54.59
2019-05-29T08:53:37.404Z,54.77
2019-05-29T08:54:37.451Z,53.55
2019-05-29T08:55:37.439Z,52.53
2019-05-29T08:56:37.398Z,53.04
2019-05-29T08:57:37.427Z,52.23
2019-05-29T08:58:38.169Z,52.64
2019-05-29T08:59:37.323Z,51.09
2019-05-29T09:00:37.366Z,51.21
2019-05-29T09:01:37.305Z,50.89
2019-05-29T09:02:37.319Z,50.89
2019-05-29T09:03:37.358Z,51.50
2019-05-29T09:04:37.346Z,50.99
2019-05-29T09:05:37.252Z,51.39
2019-05-29T09:06:37.293Z,50.51
2019-05-29T09:07:37.266Z,50.71
2019-05-29T09:08:37.221Z,51.12
2019-05-29T09:09:37.247Z,51.70
2019-05-29T09:10:37.275Z,52.41
2019-05-29T09:11:37.194Z,49.27
2019-05-29T09:12:37.182Z,49.39
2019-05-29T09:13:37.179Z,49.80
2019-05-29T09:14:37.233Z,49.90
2019-05-29T09:15:37.145Z,50.31
2019-05-29T09:16:37.133Z,48.96
2019-05-29T09:17:37.137Z,48.86
2019-05-29T09:18:37.152Z,49.14
2019-05-29T09:19:37.100Z,49.73
2019-05-29T09:21:00.894Z,49.04
2019-05-29T09:21:38.089Z,48.91
2019-05-29T09:22:37.069Z,48.74
2019-05-29T09:23:37.073Z,48.82
2019-05-29T09:24:37.048Z,49.73
2019-05-29T09:25:37.119Z,48.54
2019-05-29T09:26:37.021Z,47.82
2019-05-29T09:27:37.041Z,46.71
2019-05-29T09:28:37.006Z,47.31
2019-05-29T09:29:37.022Z,47.31
2019-05-29T09:30:36.974Z,46.91
2019-05-29T09:31:37.012Z,47.09
2019-05-29T09:32:49.551Z,44.95
2019-05-29T09:33:37.942Z,46.44
2019-05-29T09:34:36.953Z,48.77
2019-05-29T09:35:36.922Z,49.50
2019-05-29T09:36:36.958Z,50.21
2019-05-29T09:37:36.924Z,50.34
2019-05-29T09:38:37.003Z,50.31
2019-05-29T09:39:36.873Z,49.40
2019-05-29T09:40:36.903Z,49.90
2019-05-29T09:41:36.916Z,49.10
2019-05-29T09:42:36.890Z,48.59
2019-05-29T09:43:36.834Z,48.49
2019-05-29T09:44:39.299Z,48.16
2019-05-29T09:45:36.826Z,47.96
2019-05-29T09:46:36.798Z,47.66
2019-05-29T09:47:36.924Z,48.06
2019-05-29T09:48:49.232Z,48.49
2019-05-29T09:49:37.762Z,48.99
2019-05-29T09:50:49.547Z,48.41
2019-05-29T09:51:37.772Z,48.71
2019-05-29T09:52:36.790Z,48.69
2019-05-29T09:53:36.731Z,48.77
2019-05-29T09:54:36.885Z,48.46
2019-05-29T09:55:36.799Z,48.74
2019-05-29T09:56:36.688Z,48.52
2019-05-29T09:57:36.947Z,47.71
2019-05-29T09:58:36.662Z,47.31
2019-05-29T09:59:36.782Z,47.83
2019-05-29T10:00:36.647Z,48.03
2019-05-29T10:01:37.406Z,48.44
2019-05-29T10:02:36.921Z,48.03
2019-05-29T10:03:36.602Z,48.02
2019-05-29T10:04:36.612Z,46.80
2019-05-29T10:05:36.584Z,46.86
2019-05-29T10:06:36.577Z,45.54
2019-05-29T10:07:36.619Z,44.86
2019-05-29T10:08:36.624Z,45.06
2019-05-29T10:09:36.552Z,45.47
2019-05-29T10:10:36.552Z,44.96
2019-05-29T10:11:36.546Z,44.54
2019-05-29T10:12:36.514Z,44.74
2019-05-29T10:13:36.530Z,45.45
2019-05-29T10:14:36.604Z,44.79
2019-05-29T10:15:36.512Z,45.48
2019-05-29T10:16:36.488Z,44.98
2019-05-29T10:17:47.975Z,44.78
2019-05-29T10:18:37.465Z,45.00
2019-05-29T10:19:36.451Z,44.92
2019-05-29T10:20:36.435Z,45.83
2019-05-29T10:21:40.543Z,44.42
2019-05-29T10:22:36.512Z,44.71
2019-05-29T10:23:36.434Z,44.43
2019-05-29T10:24:36.394Z,43.83
2019-05-29T10:25:36.504Z,44.92
2019-05-29T10:26:36.399Z,43.28
2019-05-29T10:27:36.343Z,42.38
2019-05-29T10:28:50.359Z,41.65
2019-05-29T10:29:37.329Z,41.75
2019-05-29T10:30:36.349Z,41.65
2019-05-29T10:31:36.309Z,41.22
2019-05-29T10:32:36.351Z,40.42
2019-05-29T10:33:36.274Z,40.94
2019-05-29T10:34:36.283Z,41.06
2019-05-29T10:35:36.248Z,40.96
2019-05-29T10:36:36.316Z,41.56
2019-05-29T10:37:36.245Z,41.97
2019-05-29T10:38:36.251Z,41.35
2019-05-29T10:39:36.208Z,42.05
2019-05-29T10:40:36.256Z,40.44
2019-05-29T10:41:36.179Z,39.83
2019-05-29T10:42:36.203Z,40.22
2019-05-29T10:43:36.197Z,40.91
2019-05-29T10:44:36.227Z,40.40
2019-05-29T10:45:36.154Z,39.59
2019-05-29T10:46:36.136Z,40.50
2019-05-29T10:47:36.855Z,40.42
2019-05-29T10:48:36.120Z,39.61
2019-05-29T10:49:36.133Z,37.90
2019-05-29T10:50:36.081Z,38.93
2019-05-29T10:51:36.079Z,38.64
2019-05-29T10:52:36.063Z,38.64
2019-05-29T10:53:36.098Z,39.65
2019-05-29T10:54:39.123Z,38.64
2019-05-29T10:55:36.078Z,39.13
2019-05-29T10:56:36.101Z,39.51
2019-05-29T10:57:36.063Z,38.59
2019-05-29T10:58:48.583Z,38.57
2019-05-29T10:59:36.982Z,37.85
2019-05-29T11:00:38.855Z,37.85
2019-05-29T11:01:35.979Z,37.74
2019-05-29T11:02:36.032Z,37.45
2019-05-29T11:03:35.944Z,37.93
2019-05-29T11:04:36.008Z,39.86
2019-05-29T11:05:36.001Z,41.06
2019-05-29T11:06:40.191Z,39.56
2019-05-29T11:07:36.905Z,40.04
2019-05-29T11:08:35.887Z,39.34
2019-05-29T11:09:44.426Z,39.54
2019-05-29T11:10:36.967Z,38.64
2019-05-29T11:11:35.888Z,39.14
2019-05-29T11:12:39.289Z,37.83
2019-05-29T11:13:35.842Z,37.30
2019-05-29T11:14:35.872Z,36.92
2019-05-29T11:15:35.877Z,36.60
2019-05-29T11:16:39.583Z,37.51
2019-05-29T11:17:35.901Z,37.91
2019-05-29T11:18:35.852Z,38.11
2019-05-29T11:19:35.827Z,37.79
2019-05-29T11:20:35.764Z,37.79
2019-05-29T11:21:35.743Z,36.99
2019-05-29T11:22:35.877Z,36.79
2019-05-29T11:23:35.715Z,36.80
2019-05-29T11:24:35.745Z,36.60
2019-05-29T11:25:35.710Z,37.02
2019-05-29T11:26:35.728Z,36.92
2019-05-29T11:27:35.680Z,37.32
2019-05-29T11:28:35.663Z,36.50
2019-05-29T11:29:35.646Z,37.01
2019-05-29T11:30:35.712Z,37.08
2019-05-29T11:31:35.704Z,36.79
2019-05-29T11:32:35.641Z,36.58
2019-05-29T11:33:35.604Z,36.50
2019-05-29T11:34:35.605Z,36.60
2019-05-29T11:35:35.584Z,36.64
2019-05-29T11:36:35.610Z,36.44
2019-05-29T11:37:35.609Z,36.33
2019-05-29T11:38:35.639Z,36.25
2019-05-29T11:39:35.545Z,36.46
2019-05-29T11:40:35.825Z,36.90
2019-05-29T11:41:35.612Z,35.36
2019-05-29T11:42:35.537Z,34.24
2019-05-29T11:43:35.586Z,33.92
2019-05-29T11:44:35.506Z,31.82
2019-05-29T11:45:36.084Z,32.21
2019-05-29T11:46:35.575Z,32.42
2019-05-29T11:47:35.456Z,32.21
2019-05-29T11:48:35.469Z,33.23
2019-05-29T11:49:35.573Z,33.65
2019-05-29T11:50:35.428Z,32.98
2019-05-29T11:51:35.412Z,33.99
2019-05-29T11:52:42.843Z,35.39
2019-05-29T11:53:36.395Z,34.29
2019-05-29T11:54:35.419Z,34.59
2019-05-29T11:55:35.374Z,33.17
2019-05-29T11:56:35.359Z,33.15
2019-05-29T11:57:39.458Z,32.46
2019-05-29T11:58:35.362Z,33.57
2019-05-29T11:59:35.425Z,32.95
2019-05-29T12:00:35.321Z,34.33
2019-05-29T12:01:49.606Z,32.90
2019-05-29T12:02:36.339Z,32.69
2019-05-29T12:03:35.300Z,32.89
2019-05-29T12:04:35.273Z,31.67
2019-05-29T12:05:35.273Z,30.58
2019-05-29T12:06:35.333Z,32.09
2019-05-29T12:07:35.244Z,32.77
2019-05-29T12:08:35.309Z,32.65
2019-05-29T12:09:35.521Z,32.24
2019-05-29T12:10:35.252Z,30.93
2019-05-29T12:11:35.196Z,30.24
2019-05-29T12:12:35.179Z,30.54
2019-05-29T12:13:35.176Z,30.74
2019-05-29T12:14:55.632Z,31.23
2019-05-29T12:15:36.327Z,29.71
2019-05-29T12:16:35.166Z,30.01
2019-05-29T12:17:35.416Z,30.01
2019-05-29T12:18:35.139Z,28.92
2019-05-29T12:19:35.165Z,30.43
2019-05-29T12:20:35.105Z,30.24
2019-05-29T12:21:35.086Z,30.74
2019-05-29T12:22:35.127Z,30.34
2019-05-29T12:23:35.903Z,30.44
2019-05-29T12:24:35.069Z,30.02
2019-05-29T12:25:35.123Z,30.32
2019-05-29T12:26:35.067Z,30.73
2019-05-29T12:27:35.006Z,30.52
2019-05-29T12:28:35.044Z,31.12
2019-05-29T12:29:35.743Z,30.54
2019-05-29T12:30:34.977Z,30.34
2019-05-29T12:31:35.030Z,30.54
2019-05-29T12:32:34.966Z,30.52
2019-05-29T12:33:35.009Z,30.01
2019-05-29T12:34:34.941Z,30.31
2019-05-29T12:35:34.974Z,30.12
2019-05-29T12:36:34.918Z,30.16
2019-05-29T12:37:34.905Z,30.76
2019-05-29T12:38:34.881Z,30.34
2019-05-29T12:39:34.933Z,30.74
2019-05-29T12:40:34.905Z,29.74
2019-05-29T12:41:34.957Z,29.80
2019-05-29T12:42:34.894Z,29.39
2019-05-29T12:43:34.833Z,29.69
2019-05-29T12:44:34.876Z,30.48
2019-05-29T12:45:34.864Z,28.87
2019-05-29T12:46:34.811Z,29.95
2019-05-29T12:47:34.792Z,29.94
2019-05-29T12:48:34.779Z,29.05
2019-05-29T12:49:34.798Z,29.24
2019-05-29T12:50:35.038Z,29.03
2019-05-29T12:51:35.395Z,29.13
2019-05-29T12:52:34.810Z,28.92